Moncton, Canada
Current Conditions -  °F | °C
As of 4:00 PM on Thursday 29 Jan 2015 (Local Time) from CYQM Reporting Station
Few Clouds Few Clouds  
Wind Chill: 21°   Ceiling: Unl
Heat Index: 21°   Visibility: 15mi
Dew Point: 12°   Wind: 2mph
Humidity: 68%   Direction: 10°N
Pressure: 30.2"   Gusts: NA
Location:  46.09°N, 64.78°W
Report Text: CYQM 292000Z 01002KT 15SM FEW240 M06/M11 A3020 RMK CI1 SLP232
Loading
Personal Weather Stations






























Interactive Weather Map New forecast layout! Learn more

10-Day Weather Forecast

Advertisements
Track Severe Weather on mobile